sensor_id;sensor_type;location;lat;lon;timestamp;P1;durP1;ratioP1;P2;durP2;ratioP2
21448;SDS011;10885;52.830;13.788;2023-02-01T06:13:57;35.15;;;5.05;;
21448;SDS011;10885;52.830;13.788;2023-02-01T06:24:38;33.55;;;5.38;;
21448;SDS011;10885;52.830;13.788;2023-02-01T06:30:00;26.15;;;4.50;;
21448;SDS011;10885;52.830;13.788;2023-02-01T06:35:21;33.78;;;4.45;;
21448;SDS011;10885;52.830;13.788;2023-02-01T06:40:42;22.63;;;5.45;;
21448;SDS011;10885;52.830;13.788;2023-02-01T06:46:08;14.85;;;3.45;;
21448;SDS011;10885;52.830;13.788;2023-02-01T06:51:31;20.10;;;3.92;;
21448;SDS011;10885;52.830;13.788;2023-02-01T07:02:13;27.48;;;4.10;;
21448;SDS011;10885;52.830;13.788;2023-02-01T07:07:34;24.15;;;4.43;;
21448;SDS011;10885;52.830;13.788;2023-02-01T07:12:58;19.75;;;4.20;;
21448;SDS011;10885;52.830;13.788;2023-02-01T07:18:19;35.85;;;4.45;;
21448;SDS011;10885;52.830;13.788;2023-02-01T07:23:39;30.23;;;4.88;;
21448;SDS011;10885;52.830;13.788;2023-02-01T07:29:01;26.00;;;5.25;;
21448;SDS011;10885;52.830;13.788;2023-02-01T07:34:21;26.73;;;5.50;;
21448;SDS011;10885;52.830;13.788;2023-02-01T07:45:03;34.20;;;5.10;;
21448;SDS011;10885;52.830;13.788;2023-02-01T07:50:40;28.60;;;4.85;;
21448;SDS011;10885;52.830;13.788;2023-02-01T07:56:01;23.35;;;6.13;;
21448;SDS011;10885;52.830;13.788;2023-02-01T08:01:24;31.17;;;5.75;;
21448;SDS011;10885;52.830;13.788;2023-02-01T08:06:47;32.08;;;5.65;;
21448;SDS011;10885;52.830;13.788;2023-02-01T08:12:08;28.48;;;5.65;;
21448;SDS011;10885;52.830;13.788;2023-02-01T08:17:29;27.90;;;5.30;;
21448;SDS011;10885;52.830;13.788;2023-02-01T08:22:50;21.30;;;4.72;;
21448;SDS011;10885;52.830;13.788;2023-02-01T08:28:14;14.65;;;4.90;;
21448;SDS011;10885;52.830;13.788;2023-02-01T08:33:35;23.52;;;5.13;;
21448;SDS011;10885;52.830;13.788;2023-02-01T08:38:57;24.63;;;5.50;;
21448;SDS011;10885;52.830;13.788;2023-02-01T08:44:19;31.10;;;4.00;;
21448;SDS011;10885;52.830;13.788;2023-02-01T08:49:39;21.27;;;4.40;;
21448;SDS011;10885;52.830;13.788;2023-02-01T08:55:00;19.63;;;5.65;;
21448;SDS011;10885;52.830;13.788;2023-02-01T09:05:42;9.73;;;2.73;;
21448;SDS011;10885;52.830;13.788;2023-02-01T09:11:13;7.32;;;2.15;;
21448;SDS011;10885;52.830;13.788;2023-02-01T09:16:37;4.30;;;1.92;;
21448;SDS011;10885;52.830;13.788;2023-02-01T09:21:58;8.43;;;1.70;;
21448;SDS011;10885;52.830;13.788;2023-02-01T09:27:19;7.35;;;1.65;;
21448;SDS011;10885;52.830;13.788;2023-02-01T09:32:41;3.50;;;1.15;;
21448;SDS011;10885;52.830;13.788;2023-02-01T09:49:01;6.95;;;1.30;;
21448;SDS011;10885;52.830;13.788;2023-02-01T09:54:38;4.35;;;1.20;;
21448;SDS011;10885;52.830;13.788;2023-02-01T10:00:06;5.82;;;1.40;;
21448;SDS011;10885;52.830;13.788;2023-02-01T10:22:47;11.13;;;1.63;;
21448;SDS011;10885;52.830;13.788;2023-02-01T10:28:29;7.45;;;2.00;;
21448;SDS011;10885;52.830;13.788;2023-02-01T10:33:56;4.68;;;1.73;;
21448;SDS011;10885;52.830;13.788;2023-02-01T10:39:22;3.95;;;1.92;;
21448;SDS011;10885;52.830;13.788;2023-02-01T10:44:44;10.68;;;2.72;;
21448;SDS011;10885;52.830;13.788;2023-02-01T11:01:06;10.60;;;3.13;;
21448;SDS011;10885;52.830;13.788;2023-02-01T11:06:29;7.75;;;1.88;;
21448;SDS011;10885;52.830;13.788;2023-02-01T11:11:59;8.10;;;3.65;;
21448;SDS011;10885;52.830;13.788;2023-02-01T11:17:24;7.50;;;1.83;;
21448;SDS011;10885;52.830;13.788;2023-02-01T11:22:59;8.98;;;2.00;;
21448;SDS011;10885;52.830;13.788;2023-02-01T11:28:25;10.23;;;1.88;;
21448;SDS011;10885;52.830;13.788;2023-02-01T11:33:52;7.55;;;2.28;;
21448;SDS011;10885;52.830;13.788;2023-02-01T11:39:21;10.77;;;2.60;;
21448;SDS011;10885;52.830;13.788;2023-02-01T11:44:46;13.63;;;2.10;;
21448;SDS011;10885;52.830;13.788;2023-02-01T11:50:15;8.52;;;2.50;;
21448;SDS011;10885;52.830;13.788;2023-02-01T12:01:17;11.02;;;2.40;;
21448;SDS011;10885;52.830;13.788;2023-02-01T12:18:30;10.00;;;2.45;;
21448;SDS011;10885;52.830;13.788;2023-02-01T12:41:20;7.78;;;1.95;;
21448;SDS011;10885;52.830;13.788;2023-02-01T12:47:03;14.40;;;2.90;;
21448;SDS011;10885;52.830;13.788;2023-02-01T12:58:09;10.57;;;2.60;;
21448;SDS011;10885;52.830;13.788;2023-02-01T13:04:02;6.90;;;2.03;;
21448;SDS011;10885;52.830;13.788;2023-02-01T13:15:36;6.93;;;1.20;;
21448;SDS011;10885;52.830;13.788;2023-02-01T13:21:20;2.57;;;1.30;;
21448;SDS011;10885;52.830;13.788;2023-02-01T13:26:45;3.50;;;1.13;;
21448;SDS011;10885;52.830;13.788;2023-02-01T13:37:34;4.10;;;1.08;;
21448;SDS011;10885;52.830;13.788;2023-02-01T13:43:10;1.63;;;1.30;;
21448;SDS011;10885;52.830;13.788;2023-02-01T13:48:45;9.20;;;1.98;;
21448;SDS011;10885;52.830;13.788;2023-02-01T13:54:33;5.30;;;1.95;;
21448;SDS011;10885;52.830;13.788;2023-02-01T14:00:05;6.75;;;1.88;;
21448;SDS011;10885;52.830;13.788;2023-02-01T14:11:08;14.68;;;2.20;;
21448;SDS011;10885;52.830;13.788;2023-02-01T14:27:41;5.78;;;2.15;;
21448;SDS011;10885;52.830;13.788;2023-02-01T14:33:11;16.38;;;2.15;;
21448;SDS011;10885;52.830;13.788;2023-02-01T14:38:38;11.63;;;2.40;;
21448;SDS011;10885;52.830;13.788;2023-02-01T14:49:35;18.70;;;2.70;;
21448;SDS011;10885;52.830;13.788;2023-02-01T14:55:25;6.72;;;2.47;;
21448;SDS011;10885;52.830;13.788;2023-02-01T15:00:58;8.43;;;2.45;;
21448;SDS011;10885;52.830;13.788;2023-02-01T15:06:32;8.95;;;2.42;;
21448;SDS011;10885;52.830;13.788;2023-02-01T15:12:02;10.18;;;2.78;;
21448;SDS011;10885;52.830;13.788;2023-02-01T15:17:33;9.93;;;3.53;;
21448;SDS011;10885;52.830;13.788;2023-02-01T15:23:03;9.30;;;2.28;;
21448;SDS011;10885;52.830;13.788;2023-02-01T15:28:28;7.95;;;2.55;;
21448;SDS011;10885;52.830;13.788;2023-02-01T15:39:21;11.65;;;2.70;;
21448;SDS011;10885;52.830;13.788;2023-02-01T15:44:46;14.70;;;3.33;;
21448;SDS011;10885;52.830;13.788;2023-02-01T15:50:12;15.43;;;2.80;;
21448;SDS011;10885;52.830;13.788;2023-02-01T15:55:39;11.13;;;2.95;;
21448;SDS011;10885;52.830;13.788;2023-02-01T16:01:04;7.32;;;3.10;;
21448;SDS011;10885;52.830;13.788;2023-02-01T16:06:29;8.07;;;2.40;;
21448;SDS011;10885;52.830;13.788;2023-02-01T16:12:01;14.25;;;3.47;;
21448;SDS011;10885;52.830;13.788;2023-02-01T16:17:24;9.40;;;2.55;;
21448;SDS011;10885;52.830;13.788;2023-02-01T16:28:05;5.13;;;1.90;;
21448;SDS011;10885;52.830;13.788;2023-02-01T16:33:27;6.45;;;2.03;;
21448;SDS011;10885;52.830;13.788;2023-02-01T16:38:48;6.80;;;1.92;;
21448;SDS011;10885;52.830;13.788;2023-02-01T16:44:09;4.70;;;1.80;;
21448;SDS011;10885;52.830;13.788;2023-02-01T16:49:30;5.57;;;1.60;;
21448;SDS011;10885;52.830;13.788;2023-02-01T16:54:52;1.63;;;1.52;;
21448;SDS011;10885;52.830;13.788;2023-02-01T17:00:13;1.50;;;1.40;;
21448;SDS011;10885;52.830;13.788;2023-02-01T17:05:49;4.10;;;1.50;;
21448;SDS011;10885;52.830;13.788;2023-02-01T17:11:12;2.42;;;1.30;;
21448;SDS011;10885;52.830;13.788;2023-02-01T17:16:34;1.98;;;1.40;;
21448;SDS011;10885;52.830;13.788;2023-02-01T17:21:55;1.83;;;1.55;;
21448;SDS011;10885;52.830;13.788;2023-02-01T17:27:18;1.83;;;1.35;;
21448;SDS011;10885;52.830;13.788;2023-02-01T17:38:00;1.70;;;1.30;;
21448;SDS011;10885;52.830;13.788;2023-02-01T17:43:22;2.03;;;1.42;;
21448;SDS011;10885;52.830;13.788;2023-02-01T17:48:45;3.55;;;1.35;;
21448;SDS011;10885;52.830;13.788;2023-02-01T17:54:12;1.45;;;1.35;;
21448;SDS011;10885;52.830;13.788;2023-02-01T17:59:34;1.60;;;1.17;;
21448;SDS011;10885;52.830;13.788;2023-02-01T18:04:55;5.78;;;1.58;;
21448;SDS011;10885;52.830;13.788;2023-02-01T18:10:16;1.70;;;1.55;;
21448;SDS011;10885;52.830;13.788;2023-02-01T18:15:38;3.08;;;1.88;;
21448;SDS011;10885;52.830;13.788;2023-02-01T18:20:59;4.18;;;2.60;;
21448;SDS011;10885;52.830;13.788;2023-02-01T18:26:20;7.80;;;2.20;;
21448;SDS011;10885;52.830;13.788;2023-02-01T18:31:45;4.88;;;2.08;;
21448;SDS011;10885;52.830;13.788;2023-02-01T18:37:09;2.92;;;1.92;;
21448;SDS011;10885;52.830;13.788;2023-02-01T18:42:29;6.75;;;1.98;;
21448;SDS011;10885;52.830;13.788;2023-02-01T18:47:50;4.68;;;1.60;;
21448;SDS011;10885;52.830;13.788;2023-02-01T18:58:37;8.80;;;2.17;;
21448;SDS011;10885;52.830;13.788;2023-02-01T19:03:58;10.23;;;2.35;;
21448;SDS011;10885;52.830;13.788;2023-02-01T19:14:40;10.32;;;2.75;;
21448;SDS011;10885;52.830;13.788;2023-02-01T19:20:03;22.60;;;3.30;;
21448;SDS011;10885;52.830;13.788;2023-02-01T19:25:26;14.50;;;2.55;;
21448;SDS011;10885;52.830;13.788;2023-02-01T19:30:47;14.35;;;2.92;;
21448;SDS011;10885;52.830;13.788;2023-02-01T19:36:08;23.52;;;3.72;;
21448;SDS011;10885;52.830;13.788;2023-02-01T19:41:30;12.63;;;2.80;;
21448;SDS011;10885;52.830;13.788;2023-02-01T19:46:51;17.55;;;3.85;;
21448;SDS011;10885;52.830;13.788;2023-02-01T19:52:12;9.85;;;2.90;;
21448;SDS011;10885;52.830;13.788;2023-02-01T19:57:33;26.92;;;4.35;;
21448;SDS011;10885;52.830;13.788;2023-02-01T20:02:55;21.77;;;3.78;;
21448;SDS011;10885;52.830;13.788;2023-02-01T20:08:16;13.82;;;2.90;;
21448;SDS011;10885;52.830;13.788;2023-02-01T20:13:37;16.42;;;3.20;;
21448;SDS011;10885;52.830;13.788;2023-02-01T20:18:59;25.13;;;3.33;;
21448;SDS011;10885;52.830;13.788;2023-02-01T20:24:19;13.18;;;3.20;;
21448;SDS011;10885;52.830;13.788;2023-02-01T20:29:40;25.02;;;3.13;;
21448;SDS011;10885;52.830;13.788;2023-02-01T20:40:22;16.83;;;3.63;;
21448;SDS011;10885;52.830;13.788;2023-02-01T20:45:43;18.17;;;3.42;;
21448;SDS011;10885;52.830;13.788;2023-02-01T20:51:04;14.38;;;3.33;;
21448;SDS011;10885;52.830;13.788;2023-02-01T20:56:25;21.92;;;3.75;;
21448;SDS011;10885;52.830;13.788;2023-02-01T21:07:13;18.05;;;3.25;;
21448;SDS011;10885;52.830;13.788;2023-02-01T21:17:55;21.95;;;4.22;;
21448;SDS011;10885;52.830;13.788;2023-02-01T21:23:16;23.90;;;4.03;;
21448;SDS011;10885;52.830;13.788;2023-02-01T21:28:37;21.17;;;3.70;;
21448;SDS011;10885;52.830;13.788;2023-02-01T21:39:19;26.88;;;4.40;;
21448;SDS011;10885;52.830;13.788;2023-02-01T21:44:40;18.38;;;4.10;;
21448;SDS011;10885;52.830;13.788;2023-02-01T21:50:01;14.82;;;3.88;;
21448;SDS011;10885;52.830;13.788;2023-02-01T22:00:43;20.67;;;3.75;;
21448;SDS011;10885;52.830;13.788;2023-02-01T22:06:07;21.05;;;4.53;;
21448;SDS011;10885;52.830;13.788;2023-02-01T22:11:27;20.80;;;3.47;;
21448;SDS011;10885;52.830;13.788;2023-02-01T22:16:49;15.30;;;3.50;;
21448;SDS011;10885;52.830;13.788;2023-02-01T22:22:10;21.10;;;4.75;;
21448;SDS011;10885;52.830;13.788;2023-02-01T22:27:31;27.88;;;4.22;;
21448;SDS011;10885;52.830;13.788;2023-02-01T22:32:52;22.23;;;4.10;;
21448;SDS011;10885;52.830;13.788;2023-02-01T22:38:17;31.70;;;4.13;;
21448;SDS011;10885;52.830;13.788;2023-02-01T22:43:38;23.75;;;3.75;;
21448;SDS011;10885;52.830;13.788;2023-02-01T22:48:59;23.27;;;3.28;;
